Time;durP1;ratioP1;P1;durP2;ratioP2;P2;SDS_P1;SDS_P2;PMS_P1;PMS_P2;Temp;Humidity;BMP_temperature;BMP_pressure;BME280_temperature;BME280_humidity;BME280_pressure;Samples;Min_cycle;Max_cycle;Signal;HPM_P1;HPM_P2
2022/03/28 00:01:29;;;;;;;14.18;5.25;;;6.60;99.90;;;;;;4881940;29;20044;-82
2022/03/28 00:03:55;;;;;;;15.20;5.35;;;6.40;99.90;;;;;;4898255;29;20052;-82
2022/03/28 00:06:20;;;;;;;12.02;5.53;;;6.40;99.90;;;;;;4881249;29;20060;-82
2022/03/28 00:08:46;;;;;;;12.77;5.43;;;6.30;99.90;;;;;;4865849;29;20045;-82
2022/03/28 00:11:12;;;;;;;11.35;5.30;;;6.30;99.90;;;;;;4881677;29;20056;-82
2022/03/28 00:13:38;;;;;;;12.70;5.07;;;6.40;99.90;;;;;;4898218;29;20056;-82
2022/03/28 00:16:04;;;;;;;8.27;4.20;;;6.40;99.90;;;;;;4881776;29;20049;-82
2022/03/28 00:18:29;;;;;;;6.72;3.53;;;6.30;99.90;;;;;;4881643;29;20518;-82
2022/03/28 00:20:56;;;;;;;6.10;3.95;;;6.30;99.90;;;;;;4881114;29;20056;-82
2022/03/28 00:23:22;;;;;;;8.65;4.65;;;6.30;99.90;;;;;;4865750;29;20119;-82
2022/03/28 00:25:49;;;;;;;7.53;4.82;;;6.40;99.90;;;;;;4881295;29;20250;-83
2022/03/28 00:28:15;;;;;;;21.92;4.72;;;6.30;99.90;;;;;;4881034;29;20116;-83
2022/03/28 00:30:41;;;;;;;8.68;3.83;;;6.30;99.90;;;;;;4897996;29;20040;-82
2022/03/28 00:33:07;;;;;;;15.70;3.80;;;6.30;99.90;;;;;;4881364;29;20045;-82
2022/03/28 00:35:35;;;;;;;7.97;3.60;;;6.30;99.90;;;;;;4897697;29;20135;-82
2022/03/28 00:38:05;;;;;;;8.45;4.03;;;6.30;99.90;;;;;;4897641;29;20468;-83
2022/03/28 00:40:32;;;;;;;7.45;3.47;;;6.30;99.90;;;;;;4881133;29;20119;-83
2022/03/28 00:43:03;;;;;;;13.13;3.83;;;6.30;99.90;;;;;;4880998;29;20411;-82
2022/03/28 00:45:33;;;;;;;10.07;3.47;;;6.40;99.90;;;;;;4880576;29;20143;-83
2022/03/28 00:48:00;;;;;;;9.98;3.33;;;6.30;99.90;;;;;;4898024;29;20088;-82
2022/03/28 00:50:28;;;;;;;26.77;4.03;;;6.30;99.90;;;;;;4880931;29;20052;-82
2022/03/28 00:52:54;;;;;;;6.85;3.72;;;6.30;99.90;;;;;;4897344;29;20041;-82
2022/03/28 00:55:19;;;;;;;19.85;3.53;;;6.30;99.90;;;;;;4881204;29;20064;-82
2022/03/28 00:57:45;;;;;;;9.20;4.18;;;6.30;99.90;;;;;;4865133;29;20052;-82
2022/03/28 01:00:13;;;;;;;18.38;3.70;;;6.20;99.90;;;;;;4865627;29;20054;-83
2022/03/28 01:02:39;;;;;;;48.00;4.50;;;6.30;99.90;;;;;;4896068;29;20058;-83
2022/03/28 01:05:06;;;;;;;8.20;4.70;;;6.30;99.90;;;;;;4897404;29;20048;-83
2022/03/28 01:07:32;;;;;;;20.75;4.55;;;6.30;99.90;;;;;;4880727;29;20054;-82
2022/03/28 01:10:01;;;;;;;14.45;3.95;;;6.30;99.90;;;;;;4880926;29;20049;-82
2022/03/28 01:12:27;;;;;;;10.23;4.47;;;6.20;99.90;;;;;;4896346;29;20136;-83
2022/03/28 01:14:54;;;;;;;38.83;5.38;;;6.20;99.90;;;;;;4897364;29;20052;-83
2022/03/28 01:20:04;;;;;;;14.52;6.10;;;6.20;99.90;;;;;;4880307;29;20156;-84
2022/03/28 01:22:30;;;;;;;25.20;4.85;;;6.20;99.90;;;;;;4897437;29;20037;-83
2022/03/28 01:25:00;;;;;;;37.55;4.80;;;6.20;99.90;;;;;;4880870;29;20063;-82
2022/03/28 01:27:26;;;;;;;24.83;5.37;;;6.20;99.90;;;;;;4880416;29;20052;-83
2022/03/28 01:29:52;;;;;;;19.80;5.47;;;6.20;99.90;;;;;;4864832;29;20299;-83
2022/03/28 01:32:18;;;;;;;32.75;6.15;;;6.20;99.90;;;;;;4864831;29;20060;-83
2022/03/28 01:34:43;;;;;;;41.05;5.93;;;6.20;99.90;;;;;;4896965;29;20560;-83
2022/03/28 01:37:09;;;;;;;23.08;6.43;;;6.20;99.90;;;;;;4880775;29;20121;-83
2022/03/28 01:39:35;;;;;;;37.45;6.60;;;6.20;99.90;;;;;;4879810;29;20549;-84
2022/03/28 01:42:00;;;;;;;42.92;6.63;;;6.10;99.90;;;;;;4865002;29;20135;-83
2022/03/28 01:44:26;;;;;;;18.00;6.60;;;6.20;99.90;;;;;;4897033;29;20091;-83
2022/03/28 01:46:52;;;;;;;35.22;6.88;;;6.10;99.90;;;;;;4864715;29;20056;-83
2022/03/28 01:49:19;;;;;;;39.08;6.60;;;6.10;99.90;;;;;;4880364;29;20056;-83
2022/03/28 01:51:46;;;;;;;42.15;7.20;;;6.10;99.90;;;;;;4880354;29;20099;-83
2022/03/28 01:54:13;;;;;;;19.73;6.50;;;6.10;99.90;;;;;;4897166;29;20102;-83
2022/03/28 01:56:39;;;;;;;17.67;6.88;;;6.10;99.90;;;;;;4900444;29;20044;-82
2022/03/28 01:59:06;;;;;;;10.77;6.53;;;6.10;99.90;;;;;;4884006;29;20052;-83
2022/03/28 02:01:33;;;;;;;36.58;6.03;;;6.10;99.90;;;;;;4900547;29;20048;-82
2022/03/28 02:03:59;;;;;;;10.63;5.75;;;6.00;99.90;;;;;;4900472;29;20045;-82
2022/03/28 02:06:26;;;;;;;20.25;6.28;;;6.00;99.90;;;;;;4883564;29;20041;-83
2022/03/28 02:08:52;;;;;;;31.15;5.43;;;6.00;99.90;;;;;;4899605;29;20056;-83
2022/03/28 02:11:18;;;;;;;7.25;4.63;;;6.00;99.90;;;;;;4900571;29;20120;-82
2022/03/28 02:13:44;;;;;;;14.55;5.32;;;5.90;99.90;;;;;;4868255;29;20096;-83
2022/03/28 02:16:10;;;;;;;19.33;5.28;;;5.90;99.90;;;;;;4900243;29;20040;-82
2022/03/28 02:18:38;;;;;;;16.52;5.90;;;5.80;99.90;;;;;;4900294;29;20040;-82
2022/03/28 02:21:04;;;;;;;18.92;5.93;;;5.90;99.90;;;;;;4899003;29;20410;-82
2022/03/28 02:23:30;;;;;;;14.55;6.38;;;5.90;99.90;;;;;;4883669;29;20056;-84
2022/03/28 02:25:56;;;;;;;9.57;5.28;;;5.90;99.90;;;;;;4883558;29;20452;-83
2022/03/28 02:28:22;;;;;;;52.45;6.80;;;5.90;99.90;;;;;;4899799;29;20071;-83
2022/03/28 02:30:48;;;;;;;13.82;6.43;;;5.90;99.90;;;;;;4900050;29;20052;-82
2022/03/28 02:33:13;;;;;;;19.23;6.70;;;5.90;99.90;;;;;;4883160;29;20456;-83
2022/03/28 02:35:41;;;;;;;20.60;6.30;;;5.80;99.90;;;;;;4898503;29;20049;-83
2022/03/28 02:38:07;;;;;;;32.03;7.47;;;5.80;99.90;;;;;;4900223;29;20104;-83
2022/03/28 02:40:33;;;;;;;20.40;7.18;;;5.80;99.90;;;;;;4899969;29;20052;-83
2022/03/28 02:43:00;;;;;;;44.03;7.32;;;6.00;99.90;;;;;;4899533;29;20051;-82
2022/03/28 02:45:27;;;;;;;30.15;7.60;;;5.80;99.90;;;;;;4883126;29;20065;-83
2022/03/28 02:47:53;;;;;;;27.13;7.85;;;5.80;99.90;;;;;;4883155;29;20060;-82
2022/03/28 02:50:18;;;;;;;20.02;7.32;;;5.80;99.90;;;;;;4899537;29;20044;-83
2022/03/28 02:52:44;;;;;;;30.10;8.02;;;5.80;99.90;;;;;;4866560;29;20108;-83
2022/03/28 02:55:10;;;;;;;28.25;7.90;;;5.80;99.90;;;;;;4883100;29;20451;-83
2022/03/28 02:57:37;;;;;;;27.63;8.43;;;5.80;99.90;;;;;;4899776;29;20056;-83
2022/03/28 03:00:10;;;;;;;24.73;7.95;;;5.80;99.90;;;;;;4883009;29;20530;-82
2022/03/28 03:02:38;;;;;;;28.77;8.80;;;5.80;99.90;;;;;;4882660;29;20407;-83
2022/03/28 03:05:05;;;;;;;26.05;7.63;;;5.80;99.90;;;;;;4882808;29;20088;-82
2022/03/28 03:07:31;;;;;;;37.03;7.82;;;5.80;99.90;;;;;;4898197;29;20406;-83
2022/03/28 03:09:56;;;;;;;36.58;8.10;;;5.80;99.90;;;;;;4899328;29;20048;-83
2022/03/28 03:12:22;;;;;;;79.45;7.75;;;5.80;99.90;;;;;;4882791;29;20527;-83
2022/03/28 03:14:48;;;;;;;52.33;8.10;;;5.90;99.90;;;;;;4867225;29;20147;-83
2022/03/28 03:17:14;;;;;;;44.88;8.90;;;5.80;99.90;;;;;;4882442;29;20049;-83
2022/03/28 03:19:40;;;;;;;23.60;8.88;;;5.70;99.90;;;;;;4882517;29;20052;-83
2022/03/28 03:22:07;;;;;;;22.40;8.30;;;5.80;99.90;;;;;;4898895;29;20407;-83
2022/03/28 03:24:34;;;;;;;28.05;8.07;;;5.80;99.90;;;;;;4899200;29;20055;-84
2022/03/28 03:27:00;;;;;;;29.50;8.35;;;5.80;99.90;;;;;;4882402;29;20103;-82
2022/03/28 03:29:26;;;;;;;33.65;8.95;;;5.80;99.90;;;;;;4866606;29;20060;-83
2022/03/28 03:31:52;;;;;;;23.08;8.45;;;5.80;99.90;;;;;;4898894;29;20411;-83
2022/03/28 03:34:19;;;;;;;60.83;8.82;;;5.80;99.90;;;;;;4898744;29;20053;-83
2022/03/28 03:36:45;;;;;;;29.38;8.48;;;5.80;99.90;;;;;;4866676;29;20045;-83
2022/03/28 03:39:11;;;;;;;27.42;8.88;;;5.80;99.90;;;;;;4882128;29;20056;-82
2022/03/28 03:41:37;;;;;;;18.65;7.90;;;5.80;99.90;;;;;;4882343;29;20067;-83
2022/03/28 03:44:03;;;;;;;51.22;9.40;;;5.80;99.90;;;;;;4882162;29;20558;-82
2022/03/28 03:46:28;;;;;;;27.13;8.98;;;5.80;99.90;;;;;;4882060;29;20402;-82
2022/03/28 03:48:54;;;;;;;106.35;9.75;;;5.80;99.90;;;;;;4898524;29;20127;-83
2022/03/28 03:51:20;;;;;;;38.78;8.55;;;5.80;99.90;;;;;;4881838;29;20048;-83
2022/03/28 03:53:45;;;;;;;27.45;8.30;;;5.80;99.90;;;;;;4898644;29;20107;-82
2022/03/28 03:56:11;;;;;;;46.85;10.30;;;5.80;99.90;;;;;;4882240;29;20139;-83
2022/03/28 03:58:37;;;;;;;25.10;9.20;;;5.80;99.90;;;;;;4881922;29;20036;-83
2022/03/28 04:01:03;;;;;;;27.80;9.10;;;5.80;99.90;;;;;;4898624;29;20229;-83
2022/03/28 04:03:28;;;;;;;20.05;8.43;;;5.80;99.90;;;;;;4865679;29;20060;-83
2022/03/28 04:05:54;;;;;;;34.28;9.68;;;5.80;99.90;;;;;;4898099;29;20407;-83
2022/03/28 04:08:20;;;;;;;35.90;9.77;;;5.80;99.90;;;;;;4898280;29;20144;-83
2022/03/28 04:10:46;;;;;;;33.00;10.07;;;5.80;99.90;;;;;;4898251;29;20507;-83
2022/03/28 04:13:13;;;;;;;31.05;10.45;;;5.80;99.90;;;;;;4881539;29;20052;-83
2022/03/28 04:15:39;;;;;;;48.28;10.57;;;5.80;99.90;;;;;;4881728;29;20052;-83
2022/03/28 04:18:05;;;;;;;28.42;10.13;;;5.80;99.90;;;;;;4897875;29;20512;-83
2022/03/28 04:20:32;;;;;;;33.13;10.95;;;5.80;99.90;;;;;;4881370;29;20049;-84
2022/03/28 04:22:58;;;;;;;28.73;11.13;;;5.80;99.90;;;;;;4881038;29;20040;-84
2022/03/28 04:25:24;;;;;;;43.55;11.82;;;5.80;99.90;;;;;;4881543;29;20136;-83
2022/03/28 04:27:50;;;;;;;41.28;11.85;;;5.80;99.90;;;;;;4897761;29;20146;-83
2022/03/28 04:30:16;;;;;;;27.92;11.07;;;5.80;99.90;;;;;;4897816;29;20056;-83
2022/03/28 04:32:42;;;;;;;21.67;9.93;;;5.80;99.90;;;;;;4896321;29;20104;-84
2022/03/28 04:35:08;;;;;;;33.95;10.40;;;6.00;99.90;;;;;;4881263;29;20048;-83
2022/03/28 04:37:36;;;;;;;25.48;10.20;;;5.80;99.90;;;;;;4880579;29;20067;-82
2022/03/28 04:40:05;;;;;;;27.20;11.32;;;5.80;99.90;;;;;;4880238;29;20423;-83
2022/03/28 04:42:31;;;;;;;60.92;13.63;;;5.80;99.90;;;;;;4865737;29;20040;-83
2022/03/28 04:44:56;;;;;;;38.60;12.23;;;5.80;99.90;;;;;;4881215;29;20491;-83
2022/03/28 04:47:22;;;;;;;36.05;12.45;;;5.90;99.90;;;;;;4880793;29;20056;-83
2022/03/28 04:49:48;;;;;;;49.45;13.88;;;5.80;99.90;;;;;;4881077;29;20112;-83
2022/03/28 04:52:13;;;;;;;50.00;14.38;;;5.90;99.90;;;;;;4880917;29;20120;-83
2022/03/28 04:54:39;;;;;;;35.85;14.02;;;5.90;99.90;;;;;;4897505;29;20116;-83
2022/03/28 04:57:05;;;;;;;36.60;14.80;;;5.90;99.90;;;;;;4897646;29;20052;-83
2022/03/28 04:59:31;;;;;;;36.65;14.80;;;5.90;99.90;;;;;;4880962;29;20053;-82
2022/03/28 05:01:58;;;;;;;38.33;15.55;;;5.90;99.90;;;;;;4865451;29;20045;-83
2022/03/28 05:04:23;;;;;;;34.75;15.77;;;5.90;99.90;;;;;;4880813;29;20407;-83
2022/03/28 05:06:49;;;;;;;42.88;16.10;;;5.90;99.90;;;;;;4865168;29;20111;-83
2022/03/28 05:09:15;;;;;;;33.40;16.17;;;5.90;99.90;;;;;;4880101;29;20056;-83
2022/03/28 05:11:41;;;;;;;39.13;16.70;;;5.90;99.90;;;;;;4880697;29;20060;-83
2022/03/28 05:14:08;;;;;;;35.05;16.27;;;5.90;99.90;;;;;;4880914;29;20055;-83
2022/03/28 05:16:34;;;;;;;40.17;16.02;;;5.90;99.90;;;;;;4897255;29;20060;-84
2022/03/28 05:18:59;;;;;;;39.40;15.23;;;5.90;99.90;;;;;;4880693;29;20380;-83
2022/03/28 05:21:25;;;;;;;26.23;14.63;;;6.10;99.90;;;;;;4880307;29;20051;-83
2022/03/28 05:23:51;;;;;;;35.65;15.20;;;5.90;99.90;;;;;;4880223;29;20140;-83
2022/03/28 05:26:16;;;;;;;38.70;16.90;;;5.90;99.90;;;;;;4896634;29;20059;-83
2022/03/28 05:28:42;;;;;;;35.30;16.65;;;6.20;99.90;;;;;;4880030;29;20060;-83
2022/03/28 05:31:08;;;;;;;27.38;15.07;;;5.90;99.90;;;;;;4899687;29;20048;-83
2022/03/28 05:33:33;;;;;;;35.63;15.23;;;5.90;99.90;;;;;;4884685;29;20057;-83
2022/03/28 05:35:59;;;;;;;29.38;14.73;;;5.90;99.90;;;;;;4884292;29;20049;-83
2022/03/28 05:38:25;;;;;;;27.10;14.75;;;5.90;99.90;;;;;;4884146;29;20063;-83
2022/03/28 05:40:51;;;;;;;25.75;14.90;;;5.90;99.90;;;;;;4884495;29;20057;-83
2022/03/28 05:43:17;;;;;;;33.30;15.32;;;5.90;99.90;;;;;;4884169;29;20047;-83
2022/03/28 05:45:42;;;;;;;30.38;14.38;;;6.00;99.90;;;;;;4900795;29;20064;-83
2022/03/28 05:48:08;;;;;;;25.70;14.00;;;6.00;99.90;;;;;;4868640;29;20148;-83
2022/03/28 05:50:34;;;;;;;23.67;13.82;;;6.00;99.90;;;;;;4900682;29;20056;-83
2022/03/28 05:53:01;;;;;;;35.35;14.18;;;6.00;99.90;;;;;;4883933;29;20417;-83
2022/03/28 05:55:26;;;;;;;24.48;14.43;;;6.00;99.90;;;;;;4900687;29;20052;-83
2022/03/28 05:57:52;;;;;;;29.15;14.77;;;6.00;99.90;;;;;;4899622;29;20053;-82
2022/03/28 06:00:20;;;;;;;29.85;13.75;;;6.20;99.90;;;;;;4884121;29;20100;-83
2022/03/28 06:02:46;;;;;;;22.80;13.35;;;6.00;99.90;;;;;;4883758;29;20462;-83
2022/03/28 06:05:12;;;;;;;25.73;13.52;;;6.00;99.90;;;;;;4868284;29;20072;-84
2022/03/28 06:07:38;;;;;;;23.45;12.68;;;6.00;99.90;;;;;;4900502;29;20064;-83
2022/03/28 06:10:04;;;;;;;25.98;13.75;;;6.00;99.90;;;;;;4900338;29;20044;-83
2022/03/28 06:12:30;;;;;;;21.95;14.02;;;6.00;99.90;;;;;;4867520;29;20100;-83
2022/03/28 06:14:56;;;;;;;20.08;12.35;;;6.00;99.90;;;;;;4900406;29;20462;-83
2022/03/28 06:17:23;;;;;;;19.75;12.27;;;6.00;99.90;;;;;;4883650;29;20143;-83
2022/03/28 06:19:49;;;;;;;20.88;12.00;;;6.10;99.90;;;;;;4868314;29;20061;-83
2022/03/28 06:22:15;;;;;;;23.67;13.13;;;6.20;99.90;;;;;;4900127;29;20048;-83
2022/03/28 06:24:42;;;;;;;29.05;13.55;;;6.10;99.90;;;;;;4882196;29;20052;-84
2022/03/28 06:27:08;;;;;;;24.38;13.98;;;6.20;99.90;;;;;;4882116;29;20086;-83
2022/03/28 06:29:34;;;;;;;24.13;14.25;;;6.10;99.90;;;;;;4882919;29;20487;-84
2022/03/28 06:32:00;;;;;;;26.85;14.82;;;6.20;99.90;;;;;;4866092;29;20074;-84
2022/03/28 06:34:26;;;;;;;24.90;14.90;;;6.20;99.90;;;;;;4898676;29;20119;-83
2022/03/28 06:36:51;;;;;;;23.45;14.48;;;6.20;99.90;;;;;;4882257;29;20104;-83
2022/03/28 06:39:17;;;;;;;24.45;14.57;;;6.20;99.90;;;;;;4880144;29;20476;-83
2022/03/28 06:41:43;;;;;;;29.80;15.68;;;6.20;99.90;;;;;;4868356;29;20056;-83
2022/03/28 06:44:11;;;;;;;27.52;15.27;;;6.50;99.90;;;;;;4867680;29;20052;-83
2022/03/28 06:46:40;;;;;;;25.30;15.07;;;6.30;99.90;;;;;;4878673;29;20116;-85
2022/03/28 06:49:06;;;;;;;25.27;14.10;;;6.50;99.90;;;;;;4903402;29;20052;-84
2022/03/28 06:51:33;;;;;;;28.63;15.18;;;6.30;99.90;;;;;;4899308;29;20522;-83
2022/03/28 06:53:58;;;;;;;27.10;15.48;;;6.30;99.90;;;;;;4891549;29;20064;-83
2022/03/28 06:56:24;;;;;;;26.20;15.25;;;6.40;99.90;;;;;;4891728;29;20104;-84
2022/03/28 06:58:51;;;;;;;29.08;16.85;;;6.40;99.90;;;;;;4881250;29;20514;-83
2022/03/28 07:01:16;;;;;;;28.67;16.58;;;6.40;99.90;;;;;;4881342;29;20037;-84
2022/03/28 07:03:42;;;;;;;27.15;16.33;;;6.40;99.90;;;;;;4897503;29;20109;-84
2022/03/28 07:06:08;;;;;;;31.20;17.00;;;6.50;99.90;;;;;;4880514;29;20412;-84
2022/03/28 07:08:34;;;;;;;29.80;17.20;;;6.50;99.90;;;;;;4898539;29;20060;-83
2022/03/28 07:11:01;;;;;;;27.10;16.48;;;6.50;99.90;;;;;;4866638;29;20487;-83
2022/03/28 07:13:27;;;;;;;25.13;15.85;;;6.50;99.90;;;;;;4897848;29;20072;-83
2022/03/28 07:15:52;;;;;;;29.70;17.00;;;6.50;99.90;;;;;;4899113;29;20091;-83
2022/03/28 07:18:19;;;;;;;30.38;18.48;;;6.60;99.90;;;;;;4898741;29;20037;-83
2022/03/28 07:20:45;;;;;;;33.28;18.80;;;6.60;99.90;;;;;;4897637;29;20055;-84
2022/03/28 07:23:12;;;;;;;33.97;17.70;;;6.60;99.90;;;;;;4866010;29;20127;-84
2022/03/28 07:25:38;;;;;;;29.15;17.17;;;6.70;99.90;;;;;;4897857;29;20456;-84
2022/03/28 07:28:12;;;;;;;31.27;18.80;;;6.60;99.90;;;;;;4865488;29;20080;-84
2022/03/28 07:30:38;;;;;;;29.75;17.48;;;6.70;99.90;;;;;;4866535;29;20064;-84
2022/03/28 07:33:06;;;;;;;30.83;18.17;;;6.70;99.90;;;;;;4867169;29;20450;-83
2022/03/28 07:35:35;;;;;;;31.92;18.33;;;6.80;99.90;;;;;;4897841;29;20451;-83
2022/03/28 07:38:02;;;;;;;35.55;17.70;;;6.80;99.90;;;;;;4866488;29;20135;-83
2022/03/28 07:40:28;;;;;;;28.77;17.10;;;6.80;99.90;;;;;;4881751;29;20045;-84
2022/03/28 07:42:54;;;;;;;24.63;15.00;;;6.80;99.90;;;;;;4898819;29;20055;-84
2022/03/28 07:45:23;;;;;;;23.10;15.07;;;6.90;99.90;;;;;;4898762;29;20085;-84
2022/03/28 07:47:51;;;;;;;24.73;15.15;;;7.00;99.90;;;;;;4881983;29;20052;-84
2022/03/28 07:50:17;;;;;;;22.80;15.30;;;7.00;99.90;;;;;;4881377;29;20135;-84
2022/03/28 07:52:43;;;;;;;27.17;15.52;;;6.90;99.90;;;;;;4865462;29;20063;-84
2022/03/28 07:55:11;;;;;;;23.10;14.27;;;6.90;99.90;;;;;;4866333;29;20048;-84
2022/03/28 07:57:38;;;;;;;23.90;15.48;;;6.90;99.90;;;;;;4898340;29;20461;-83
2022/03/28 08:00:13;;;;;;;23.92;15.07;;;7.00;99.90;;;;;;4866453;29;20093;-84
2022/03/28 08:02:39;;;;;;;21.20;14.57;;;7.10;99.90;;;;;;4881782;29;20052;-84
2022/03/28 08:05:07;;;;;;;21.25;14.40;;;7.10;99.90;;;;;;4897663;29;20056;-84
2022/03/28 08:07:33;;;;;;;22.73;13.70;;;7.20;99.90;;;;;;4865577;29;20052;-83
2022/03/28 08:09:59;;;;;;;20.77;13.73;;;7.20;99.90;;;;;;4881509;29;20055;-84
2022/03/28 08:12:25;;;;;;;19.52;12.82;;;7.30;99.90;;;;;;4880695;29;20128;-84
2022/03/28 08:14:51;;;;;;;20.52;13.15;;;7.30;99.90;;;;;;4898001;29;20172;-84
2022/03/28 08:17:20;;;;;;;18.90;12.63;;;7.50;99.90;;;;;;4881470;29;20056;-84
2022/03/28 08:19:47;;;;;;;19.38;12.13;;;7.40;99.90;;;;;;4865689;29;20048;-84
2022/03/28 08:22:13;;;;;;;17.92;11.57;;;7.60;99.90;;;;;;4897455;29;20048;-84
2022/03/28 08:24:38;;;;;;;18.42;12.02;;;7.60;99.90;;;;;;4846965;29;20060;-84
2022/03/28 08:27:04;;;;;;;18.77;11.45;;;7.70;99.90;;;;;;4875985;29;20559;-83
2022/03/28 08:29:32;;;;;;;20.13;12.35;;;7.70;99.90;;;;;;4881210;29;20403;-84
2022/03/28 08:31:59;;;;;;;19.48;13.10;;;7.80;99.90;;;;;;4898088;29;20049;-83
2022/03/28 08:34:25;;;;;;;19.30;13.20;;;7.90;99.90;;;;;;4897075;29;20048;-84
2022/03/28 08:36:51;;;;;;;22.70;13.80;;;8.00;99.90;;;;;;4865320;29;20055;-84
2022/03/28 08:39:16;;;;;;;18.40;12.90;;;8.00;99.90;;;;;;4879723;29;20555;-83
2022/03/28 08:41:45;;;;;;;20.50;13.50;;;8.00;99.90;;;;;;4896863;29;20056;-84
2022/03/28 08:44:10;;;;;;;19.83;12.50;;;8.00;99.90;;;;;;4880003;29;20494;-84
2022/03/28 08:46:41;;;;;;;19.75;12.73;;;8.10;99.90;;;;;;4881210;29;20084;-83
2022/03/28 08:49:08;;;;;;;19.63;13.23;;;8.10;99.90;;;;;;4865893;29;20131;-83
2022/03/28 08:51:34;;;;;;;22.52;14.07;;;8.30;99.90;;;;;;4897582;29;20513;-84
2022/03/28 08:54:00;;;;;;;20.73;12.98;;;8.20;99.90;;;;;;4866933;29;20087;-84
2022/03/28 08:56:25;;;;;;;21.67;14.25;;;8.40;99.90;;;;;;4898654;29;20472;-83
2022/03/28 08:58:52;;;;;;;23.83;14.70;;;8.30;99.90;;;;;;4881575;29;20056;-83
2022/03/28 09:01:22;;;;;;;19.77;13.38;;;8.40;99.90;;;;;;4865841;29;20518;-83
2022/03/28 09:03:49;;;;;;;23.35;14.50;;;8.50;99.90;;;;;;4865972;29;20068;-82
2022/03/28 09:06:36;;;;;;;22.52;14.93;;;8.50;99.90;;;;;;4898205;29;20049;-84
2022/03/28 09:09:26;;;;;;;22.55;14.20;;;8.50;99.90;;;;;;4866277;29;20057;-83
2022/03/28 09:11:55;;;;;;;24.35;15.50;;;8.60;99.90;;;;;;4881995;29;20052;-82
2022/03/28 09:14:33;;;;;;;23.02;14.57;;;8.70;99.90;;;;;;4882240;29;20116;-83
2022/03/28 09:17:12;;;;;;;21.50;14.18;;;8.80;99.90;;;;;;4882045;29;20044;-83
2022/03/28 09:19:45;;;;;;;22.17;14.00;;;8.70;99.90;;;;;;4898151;29;20055;-84
2022/03/28 09:22:19;;;;;;;22.48;14.27;;;8.80;99.90;;;;;;4880557;29;20063;-83
2022/03/28 09:24:49;;;;;;;23.27;14.00;;;8.80;99.90;;;;;;4881474;29;20036;-84
2022/03/28 09:27:28;;;;;;;23.38;13.80;;;8.90;99.90;;;;;;4881029;29;20062;-84
2022/03/28 09:30:02;;;;;;;24.92;14.73;;;8.90;99.90;;;;;;4880957;29;20075;-83
2022/03/28 09:32:33;;;;;;;22.02;13.55;;;9.00;99.90;;;;;;4880896;29;20410;-84
2022/03/28 09:35:13;;;;;;;22.08;13.20;;;9.00;99.90;;;;;;4865400;29;20460;-83
2022/03/28 09:38:04;;;;;;;22.95;13.10;;;9.00;99.90;;;;;;4880846;29;20051;-84
2022/03/28 09:40:52;;;;;;;21.33;12.70;;;9.00;99.90;;;;;;4880806;29;20410;-84
2022/03/28 09:43:20;;;;;;;21.27;12.77;;;9.00;99.90;;;;;;4897150;29;20088;-84
2022/03/28 09:45:50;;;;;;;19.15;12.30;;;9.00;99.90;;;;;;4897056;29;20053;-84
2022/03/28 09:48:19;;;;;;;22.33;12.40;;;9.00;99.90;;;;;;4865254;29;20056;-84
2022/03/28 09:50:47;;;;;;;19.75;11.93;;;9.10;99.90;;;;;;4865350;29;20482;-84
2022/03/28 09:53:22;;;;;;;21.67;12.75;;;9.10;99.90;;;;;;4880513;29;20048;-84
2022/03/28 09:55:56;;;;;;;19.20;11.60;;;9.10;99.90;;;;;;4880523;29;20135;-83
2022/03/28 09:59:04;;;;;;;16.48;10.65;;;9.20;99.90;;;;;;4880198;29;20215;-84
2022/03/28 10:01:42;;;;;;;16.20;10.35;;;9.20;99.90;;;;;;4880481;29;20495;-83
2022/03/28 10:04:10;;;;;;;18.85;10.48;;;9.30;99.90;;;;;;4880590;29;20084;-84
2022/03/28 10:06:38;;;;;;;16.30;10.25;;;9.50;99.90;;;;;;4880493;29;20048;-84
2022/03/28 10:09:05;;;;;;;15.73;10.00;;;9.60;99.90;;;;;;4897283;29;20376;-84
2022/03/28 10:11:31;;;;;;;16.45;10.80;;;9.70;99.90;;;;;;4880043;29;20044;-84
2022/03/28 10:13:58;;;;;;;16.63;10.82;;;9.80;99.90;;;;;;4880367;29;20041;-84
2022/03/28 10:16:24;;;;;;;16.80;10.80;;;9.80;99.90;;;;;;4881698;29;20071;-84
2022/03/28 10:18:50;;;;;;;16.45;10.07;;;10.00;99.90;;;;;;4883843;29;20095;-84
2022/03/28 10:21:26;;;;;;;17.73;10.45;;;10.10;99.90;;;;;;4883563;29;20052;-84
2022/03/28 10:24:04;;;;;;;19.50;10.10;;;10.30;99.90;;;;;;4900233;29;20044;-84
2022/03/28 10:26:43;;;;;;;16.88;10.02;;;10.40;99.90;;;;;;4883956;29;20053;-84
2022/03/28 10:29:11;;;;;;;17.27;10.80;;;10.40;99.90;;;;;;4899643;29;20053;-84
2022/03/28 10:31:54;;;;;;;18.85;10.88;;;10.50;99.90;;;;;;4890108;29;20082;-84
2022/03/28 10:35:00;;;;;;;15.25;9.90;;;10.30;99.90;;;;;;4884649;29;20514;-84
2022/03/28 10:37:47;;;;;;;14.23;8.93;;;10.20;99.90;;;;;;4876996;29;20570;-84
2022/03/28 10:40:31;;;;;;;13.82;9.23;;;10.20;99.90;;;;;;4901547;29;20044;-84
2022/03/28 10:43:12;;;;;;;13.07;9.05;;;10.30;99.90;;;;;;4883588;29;20049;-84
2022/03/28 10:46:02;;;;;;;13.25;9.30;;;10.50;99.90;;;;;;4884376;29;20048;-83
2022/03/28 10:49:03;;;;;;;11.93;8.80;;;10.80;99.90;;;;;;4883458;29;20123;-84
2022/03/28 10:51:31;;;;;;;13.77;8.18;;;11.20;99.90;;;;;;4883074;29;20052;-84
2022/03/28 10:54:05;;;;;;;11.93;8.40;;;11.70;99.90;;;;;;4900726;29;20060;-84
2022/03/28 10:56:40;;;;;;;11.05;8.00;;;11.80;99.90;;;;;;4899661;29;20048;-84
2022/03/28 10:59:09;;;;;;;10.38;7.70;;;12.10;99.90;;;;;;4883259;29;20474;-83
2022/03/28 11:01:40;;;;;;;9.65;7.40;;;12.30;99.90;;;;;;4867206;29;20112;-84
2022/03/28 11:04:12;;;;;;;10.77;7.07;;;12.40;99.90;;;;;;4867630;29;20048;-84
2022/03/28 11:07:04;;;;;;;10.45;7.45;;;12.50;99.90;;;;;;4899819;29;20057;-84
2022/03/28 11:09:34;;;;;;;8.95;7.15;;;12.40;99.90;;;;;;4867847;29;20143;-84
2022/03/28 11:12:06;;;;;;;11.10;7.28;;;12.20;99.90;;;;;;4867631;29;20407;-84
2022/03/28 11:14:39;;;;;;;9.40;7.05;;;12.20;99.90;;;;;;4883774;29;20055;-84
2022/03/28 11:17:16;;;;;;;9.60;7.35;;;12.20;99.90;;;;;;4868516;29;20112;-83
2022/03/28 11:19:51;;;;;;;11.50;7.80;;;12.30;99.90;;;;;;4868057;29;20056;-83
2022/03/28 11:22:17;;;;;;;12.82;8.70;;;12.50;99.90;;;;;;4883095;29;20059;-84
2022/03/28 11:24:58;;;;;;;10.32;7.85;;;12.70;99.90;;;;;;4899304;29;20048;-84
2022/03/28 11:27:29;;;;;;;10.38;7.65;;;12.90;99.90;;;;;;4865839;29;20053;-83
2022/03/28 11:30:11;;;;;;;11.35;7.55;;;13.20;99.90;;;;;;4883043;29;20060;-84
2022/03/28 11:32:38;;;;;;;10.63;7.75;;;13.50;99.90;;;;;;4867083;29;20135;-84
2022/03/28 11:35:04;;;;;;;10.40;7.90;;;13.90;99.90;;;;;;4882927;29;20048;-84
2022/03/28 11:37:30;;;;;;;9.57;7.68;;;14.20;99.90;;;;;;4898957;29;20048;-84
2022/03/28 11:40:07;;;;;;;11.55;7.20;;;14.40;99.90;;;;;;4867181;29;20075;-84
2022/03/28 11:42:36;;;;;;;12.60;7.30;;;14.40;99.90;;;;;;4898928;29;20041;-84
2022/03/28 11:45:10;;;;;;;11.52;7.43;;;14.60;99.90;;;;;;4899637;29;20252;-84
2022/03/28 11:47:37;;;;;;;10.95;7.57;;;14.70;99.90;;;;;;4866937;29;20052;-85
2022/03/28 11:50:07;;;;;;;10.10;7.22;;;15.40;99.90;;;;;;4866646;29;20111;-85
2022/03/28 11:52:34;;;;;;;9.45;7.20;;;16.20;99.90;;;;;;4899029;29;20067;-84
2022/03/28 11:55:00;;;;;;;8.40;7.07;;;16.50;99.90;;;;;;4866787;29;20052;-84
2022/03/28 12:00:20;;;;;;;9.38;7.35;;;17.50;99.90;;;;;;4882085;29;20145;-85
2022/03/28 12:02:54;;;;;;;9.23;6.75;;;18.80;95.80;;;;;;4881585;29;20059;-85
2022/03/28 12:05:47;;;;;;;7.65;6.68;;;19.40;91.40;;;;;;4882281;29;20056;-85
2022/03/28 12:08:15;;;;;;;8.90;6.90;;;20.30;87.90;;;;;;4866463;29;20064;-85
2022/03/28 12:10:47;;;;;;;9.65;7.18;;;21.10;75.20;;;;;;4882055;29;20048;-85
2022/03/28 12:13:12;;;;;;;10.05;6.82;;;21.70;70.30;;;;;;4897508;29;20060;-86
2022/03/28 12:15:44;;;;;;;13.85;7.32;;;22.30;65.00;;;;;;4882398;29;20128;-86
2022/03/28 12:18:11;;;;;;;9.15;7.28;;;22.70;59.00;;;;;;4897449;29;20127;-86
2022/03/28 12:20:40;;;;;;;9.43;7.15;;;22.80;60.00;;;;;;4898606;29;20044;-85
2022/03/28 12:23:07;;;;;;;9.02;7.00;;;23.00;59.30;;;;;;4866039;29;20100;-86
2022/03/28 12:25:41;;;;;;;13.27;7.90;;;23.30;57.40;;;;;;4866941;29;20144;-85
2022/03/28 12:28:15;;;;;;;9.10;7.68;;;23.50;55.90;;;;;;4867140;29;20061;-85
2022/03/28 12:30:41;;;;;;;11.43;8.27;;;23.60;55.80;;;;;;4900183;29;20048;-86
2022/03/28 12:33:12;;;;;;;8.82;7.88;;;23.80;55.10;;;;;;4867372;29;20045;-86
2022/03/28 12:35:43;;;;;;;10.30;9.15;;;24.00;54.00;;;;;;4882555;29;20097;-86
2022/03/28 12:38:15;;;;;;;10.80;8.65;;;24.10;53.80;;;;;;4866374;29;20060;-86
2022/03/28 12:40:44;;;;;;;9.27;7.85;;;24.50;53.10;;;;;;4898398;29;20053;-86
2022/03/28 12:43:10;;;;;;;10.98;8.63;;;24.80;51.30;;;;;;4882553;29;20131;-87
2022/03/28 12:45:39;;;;;;;10.88;8.52;;;25.00;50.30;;;;;;4881752;29;20411;-86
2022/03/28 12:48:07;;;;;;;10.07;8.68;;;25.10;48.50;;;;;;4899178;29;20116;-86
2022/03/28 12:50:34;;;;;;;10.65;9.15;;;25.00;48.70;;;;;;4866909;29;20116;-86
2022/03/28 12:53:12;;;;;;;9.75;8.75;;;25.00;49.60;;;;;;4883920;29;20087;-86